Time;durP1;ratioP1;P1;durP2;ratioP2;P2;SDS_P1;SDS_P2;PMS_P1;PMS_P2;Temp;Humidity;BMP_temperature;BMP_pressure;BME280_temperature;BME280_humidity;BME280_pressure;Samples;Min_cycle;Max_cycle;Signal;HPM_P1;HPM_P2
2021/06/18 00:01:49;;;;;;;3.97;3.67;;;23.90;63.10;;;;;;10479893;28;20310;-82
2021/06/18 00:06:51;;;;;;;4.23;3.60;;;23.80;64.10;;;;;;10491868;28;20224;-81
2021/06/18 00:11:55;;;;;;;3.33;3.10;;;23.80;62.10;;;;;;10481810;28;20235;-81
2021/06/18 00:16:57;;;;;;;4.13;3.73;;;23.70;62.20;;;;;;10513274;28;20215;-82
2021/06/18 00:21:59;;;;;;;3.57;3.27;;;23.70;62.50;;;;;;10506709;28;20228;-82
2021/06/18 00:27:03;;;;;;;4.07;3.77;;;23.60;63.10;;;;;;10529711;28;20665;-84
2021/06/18 00:32:05;;;;;;;4.87;3.73;;;23.60;63.10;;;;;;10531455;28;20196;-84
2021/06/18 00:37:08;;;;;;;3.70;3.20;;;23.60;63.60;;;;;;10542901;28;20243;-80
2021/06/18 00:42:11;;;;;;;4.00;3.60;;;23.60;63.00;;;;;;10552245;28;20253;-81
2021/06/18 00:47:20;;;;;;;3.80;3.50;;;23.50;62.80;;;;;;10530123;28;20571;-82
2021/06/18 00:52:23;;;;;;;3.40;3.10;;;23.50;63.10;;;;;;10527977;28;20563;-81
2021/06/18 00:57:27;;;;;;;3.77;3.57;;;23.40;63.30;;;;;;10540902;28;20687;-81
2021/06/18 01:02:29;;;;;;;3.60;3.40;;;23.40;62.80;;;;;;10546858;28;20202;-83
2021/06/18 01:07:33;;;;;;;6.13;4.17;;;23.30;62.40;;;;;;10558902;28;20258;-82
2021/06/18 01:12:43;;;;;;;5.13;3.83;;;23.20;63.00;;;;;;10542845;28;20195;-83
2021/06/18 01:17:51;;;;;;;4.00;3.63;;;23.20;62.90;;;;;;10545280;28;20211;-82
2021/06/18 01:22:55;;;;;;;3.80;3.50;;;23.10;63.90;;;;;;10553035;28;20604;-83
2021/06/18 01:28:05;;;;;;;3.60;3.40;;;23.00;64.20;;;;;;10567485;28;20244;-82
2021/06/18 01:33:13;;;;;;;3.80;3.50;;;23.00;63.20;;;;;;10540684;28;20674;-83
2021/06/18 01:38:18;;;;;;;3.83;3.53;;;23.00;63.00;;;;;;10532831;28;20219;-82
2021/06/18 01:43:23;;;;;;;4.70;3.77;;;22.90;63.90;;;;;;10545351;28;20678;-82
2021/06/18 01:48:27;;;;;;;3.70;3.50;;;22.80;63.90;;;;;;10548105;28;20702;-83
2021/06/18 01:53:32;;;;;;;4.10;3.80;;;22.80;65.60;;;;;;10567807;28;20235;-83
2021/06/18 01:58:35;;;;;;;3.57;3.37;;;22.80;65.50;;;;;;10526987;28;20612;-81
2021/06/18 02:03:40;;;;;;;4.30;3.80;;;22.90;65.30;;;;;;10568336;28;20501;-83
2021/06/18 02:08:45;;;;;;;4.20;3.80;;;22.80;65.30;;;;;;10541268;28;20659;-83
2021/06/18 02:13:48;;;;;;;3.87;3.60;;;22.80;65.20;;;;;;10527000;28;20310;-83
2021/06/18 02:18:53;;;;;;;3.93;3.73;;;22.80;67.00;;;;;;10544746;28;20730;-83
2021/06/18 02:23:59;;;;;;;4.27;3.87;;;22.80;66.60;;;;;;10530402;28;20225;-82
2021/06/18 02:29:01;;;;;;;4.80;4.13;;;22.70;66.70;;;;;;10546412;28;20200;-82
2021/06/18 02:34:06;;;;;;;4.10;3.80;;;22.60;66.70;;;;;;10551249;28;20211;-83
2021/06/18 02:39:10;;;;;;;4.13;3.83;;;22.60;67.70;;;;;;10497855;28;20790;-83
2021/06/18 02:44:12;;;;;;;3.83;3.50;;;22.60;67.10;;;;;;10494255;28;20273;-83
2021/06/18 02:49:21;;;;;;;3.90;3.70;;;22.60;68.00;;;;;;10494577;28;20192;-83
2021/06/18 02:54:31;;;;;;;5.77;4.13;;;22.60;67.70;;;;;;10517064;28;20271;-82
2021/06/18 02:59:43;;;;;;;6.53;4.33;;;22.60;68.40;;;;;;10520679;28;20235;-83
2021/06/18 03:04:48;;;;;;;4.60;4.27;;;22.50;68.10;;;;;;10522338;28;20228;-83
2021/06/18 03:09:53;;;;;;;6.17;5.60;;;22.50;69.70;;;;;;10546335;28;20644;-83
2021/06/18 03:15:01;;;;;;;6.73;6.20;;;22.50;69.70;;;;;;10546276;28;20216;-83
2021/06/18 03:20:09;;;;;;;6.33;5.73;;;22.50;70.30;;;;;;10548732;28;20239;-83
2021/06/18 03:25:12;;;;;;;6.73;6.17;;;22.50;70.90;;;;;;10513183;28;20255;-83
2021/06/18 03:30:15;;;;;;;6.20;5.70;;;22.50;72.00;;;;;;10507697;28;20203;-82
2021/06/18 03:35:20;;;;;;;5.80;5.20;;;22.70;70.50;;;;;;10527739;28;20228;-80
2021/06/18 03:40:23;;;;;;;5.57;4.97;;;22.70;70.80;;;;;;10545601;28;20274;-83
2021/06/18 03:45:25;;;;;;;5.10;4.70;;;22.60;71.00;;;;;;10530367;28;20303;-82
2021/06/18 03:50:30;;;;;;;5.37;5.03;;;22.60;70.40;;;;;;10548037;28;20198;-82
2021/06/18 03:55:32;;;;;;;9.40;8.13;;;22.60;71.70;;;;;;10529851;28;20220;-83
2021/06/18 04:00:36;;;;;;;5.57;5.10;;;22.60;70.90;;;;;;10538777;28;20220;-83
2021/06/18 04:05:42;;;;;;;6.90;6.20;;;22.70;71.10;;;;;;10508136;28;20234;-81
2021/06/18 04:10:45;;;;;;;4.70;4.27;;;22.60;71.80;;;;;;10544456;28;20295;-82
2021/06/18 04:15:48;;;;;;;5.57;5.07;;;22.60;71.30;;;;;;10500934;28;20231;-83
2021/06/18 04:20:53;;;;;;;5.97;5.40;;;22.60;72.30;;;;;;10548738;28;20607;-83
2021/06/18 04:25:55;;;;;;;5.53;5.13;;;22.60;71.30;;;;;;10530901;28;20759;-83
2021/06/18 04:30:58;;;;;;;6.13;4.97;;;22.60;73.20;;;;;;10540456;28;20936;-81
2021/06/18 04:36:01;;;;;;;5.03;4.73;;;22.70;72.60;;;;;;10521010;28;20250;-83
2021/06/18 04:41:03;;;;;;;5.60;5.20;;;22.70;73.20;;;;;;10479599;28;20613;-81
2021/06/18 04:46:06;;;;;;;5.23;4.83;;;22.80;72.50;;;;;;10474451;28;20259;-81
2021/06/18 04:51:10;;;;;;;6.10;5.50;;;22.80;73.20;;;;;;10504495;28;20235;-82
2021/06/18 04:56:12;;;;;;;6.27;5.77;;;22.70;73.80;;;;;;10487194;28;20805;-82
2021/06/18 05:01:14;;;;;;;6.43;5.83;;;22.80;74.60;;;;;;10511171;28;20246;-83
2021/06/18 05:06:19;;;;;;;6.47;5.97;;;22.80;75.10;;;;;;10483694;28;20889;-81
2021/06/18 05:11:22;;;;;;;6.60;6.10;;;22.90;75.10;;;;;;10518867;28;20563;-83
2021/06/18 05:16:26;;;;;;;7.43;6.63;;;22.90;75.70;;;;;;10491057;28;20216;-82
2021/06/18 05:21:29;;;;;;;6.63;6.13;;;23.00;76.40;;;;;;10515297;28;20231;-82
2021/06/18 05:26:32;;;;;;;7.33;6.53;;;23.00;76.50;;;;;;10523293;28;20372;-81
2021/06/18 05:31:34;;;;;;;6.80;6.30;;;23.00;76.50;;;;;;10518235;28;20196;-82
2021/06/18 05:36:39;;;;;;;6.97;6.40;;;23.10;76.80;;;;;;10542530;28;20216;-82
2021/06/18 05:41:41;;;;;;;8.20;7.03;;;23.10;75.60;;;;;;10510478;28;20644;-82
2021/06/18 05:46:43;;;;;;;5.97;5.47;;;23.20;76.40;;;;;;10502072;28;20230;-84
2021/06/18 05:51:47;;;;;;;6.37;5.90;;;23.30;76.20;;;;;;10485242;28;20196;-83
2021/06/18 05:56:53;;;;;;;11.83;10.33;;;23.40;77.40;;;;;;10510457;28;20234;-82
2021/06/18 06:01:55;;;;;;;8.47;6.00;;;23.40;75.80;;;;;;10536769;28;20224;-83
2021/06/18 06:06:58;;;;;;;6.23;5.73;;;23.50;75.50;;;;;;10529541;28;20653;-83
2021/06/18 06:12:00;;;;;;;6.30;5.90;;;23.60;75.50;;;;;;10554352;28;20248;-83
2021/06/18 06:17:03;;;;;;;6.23;5.73;;;23.70;75.00;;;;;;10519089;28;20310;-83
2021/06/18 06:22:10;;;;;;;6.43;5.93;;;23.80;74.80;;;;;;10554667;28;20251;-82
2021/06/18 06:27:14;;;;;;;7.80;7.10;;;23.90;74.90;;;;;;10533017;28;20220;-84
2021/06/18 06:32:16;;;;;;;6.10;5.70;;;24.00;73.80;;;;;;10530980;28;20233;-83
2021/06/18 06:37:20;;;;;;;6.00;5.60;;;24.20;73.30;;;;;;10516850;28;20261;-83
2021/06/18 06:42:22;;;;;;;6.70;6.10;;;24.40;73.90;;;;;;10541792;28;20593;-83
2021/06/18 06:47:24;;;;;;;8.23;6.37;;;24.60;73.70;;;;;;10509631;28;20224;-83
2021/06/18 06:52:28;;;;;;;8.03;5.40;;;24.90;73.80;;;;;;10488476;28;20225;-83
2021/06/18 06:57:30;;;;;;;6.00;5.33;;;25.20;73.10;;;;;;10501801;28;20303;-84
2021/06/18 07:02:32;;;;;;;5.30;4.90;;;25.50;71.80;;;;;;10507698;28;20647;-83
2021/06/18 07:07:37;;;;;;;7.00;6.30;;;25.80;71.70;;;;;;10523142;28;20227;-83
2021/06/18 07:12:39;;;;;;;6.03;4.70;;;26.10;69.30;;;;;;10467242;28;20652;-83
2021/06/18 07:17:41;;;;;;;5.63;5.20;;;26.40;66.80;;;;;;10521956;28;20223;-83
2021/06/18 07:22:45;;;;;;;7.70;6.80;;;26.90;65.30;;;;;;10522116;28;20227;-84
2021/06/18 07:27:47;;;;;;;5.80;5.40;;;27.40;62.80;;;;;;10494172;28;20250;-84
2021/06/18 07:32:49;;;;;;;5.60;5.20;;;28.00;61.50;;;;;;10488949;28;20283;-84
2021/06/18 07:37:53;;;;;;;6.53;5.93;;;28.40;62.20;;;;;;10473590;28;20216;-83
2021/06/18 07:42:55;;;;;;;6.53;5.93;;;29.00;59.40;;;;;;10537168;28;20238;-83
2021/06/18 07:47:57;;;;;;;6.37;5.33;;;29.50;59.00;;;;;;10487213;28;20692;-84
2021/06/18 07:53:02;;;;;;;9.10;6.33;;;30.00;58.70;;;;;;10502318;28;20272;-84
2021/06/18 07:58:05;;;;;;;6.10;5.50;;;30.50;57.90;;;;;;10492838;28;20289;-84
2021/06/18 08:03:08;;;;;;;9.33;6.73;;;30.80;57.10;;;;;;10539351;28;20284;-84
2021/06/18 08:08:15;;;;;;;6.83;5.77;;;31.20;57.10;;;;;;10500491;28;20249;-83
2021/06/18 08:13:22;;;;;;;5.90;5.50;;;31.70;55.90;;;;;;10519080;28;20540;-84
2021/06/18 08:18:35;;;;;;;7.50;6.00;;;32.00;54.60;;;;;;10502462;28;20763;-83
2021/06/18 08:24:02;;;;;;;6.40;5.90;;;32.60;55.00;;;;;;10512097;28;20234;-83
2021/06/18 08:29:25;;;;;;;7.10;6.50;;;33.10;53.90;;;;;;10521965;28;20203;-83
2021/06/18 08:46:44;;;;;;;11.10;6.43;;;34.00;50.50;;;;;;10496513;28;20320;-83
2021/06/18 08:51:52;;;;;;;6.90;6.30;;;34.10;49.80;;;;;;10496970;28;20196;-82
2021/06/18 09:02:47;;;;;;;6.33;5.87;;;34.50;49.40;;;;;;10517818;28;20214;-82
2021/06/18 09:08:01;;;;;;;7.03;6.47;;;34.80;49.60;;;;;;10500925;28;20238;-83
2021/06/18 09:13:17;;;;;;;9.10;7.27;;;35.10;49.80;;;;;;10469517;28;20683;-83
2021/06/18 09:30:30;;;;;;;6.87;6.27;;;36.30;48.80;;;;;;10506420;28;20204;-83
2021/06/18 09:35:35;;;;;;;6.80;6.20;;;36.80;47.40;;;;;;10521156;28;20277;-81
2021/06/18 09:40:37;;;;;;;7.00;6.50;;;37.30;46.80;;;;;;10499211;28;20696;-84
2021/06/18 09:45:40;;;;;;;6.85;6.45;;;38.00;44.90;;;;;;10504333;28;20227;-83
2021/06/18 09:50:46;;;;;;;7.63;6.93;;;38.70;44.30;;;;;;10518105;28;20202;-83
2021/06/18 09:56:00;;;;;;;6.63;6.05;;;39.90;42.70;;;;;;10522672;28;20243;-83
2021/06/18 10:01:16;;;;;;;6.03;5.43;;;41.50;41.50;;;;;;10499399;28;20726;-83
2021/06/18 10:06:21;;;;;;;5.10;4.80;;;42.80;40.20;;;;;;10544772;28;20222;-83
2021/06/18 10:11:24;;;;;;;5.85;5.45;;;43.80;38.70;;;;;;10514387;28;20265;-83
2021/06/18 10:16:27;;;;;;;6.50;5.80;;;44.60;36.30;;;;;;10484358;28;20746;-84
2021/06/18 10:21:33;;;;;;;5.65;5.35;;;45.30;36.90;;;;;;10500120;28;20344;-84
2021/06/18 10:26:36;;;;;;;5.90;5.50;;;45.40;35.70;;;;;;10472289;28;20703;-84
2021/06/18 10:31:39;;;;;;;4.97;4.63;;;43.30;37.00;;;;;;10483161;28;20547;-83
2021/06/18 10:36:45;;;;;;;4.95;4.55;;;41.00;36.50;;;;;;10495743;28;20219;-83
2021/06/18 10:41:52;;;;;;;6.00;5.40;;;39.20;38.20;;;;;;10522691;28;20249;-84
2021/06/18 10:46:54;;;;;;;7.47;6.50;;;37.60;40.30;;;;;;10545567;28;20251;-83
2021/06/18 10:51:59;;;;;;;7.27;6.70;;;36.30;42.10;;;;;;10529711;28;20275;-83
2021/06/18 10:57:06;;;;;;;6.73;6.20;;;35.20;45.00;;;;;;10468414;28;20232;-83
2021/06/18 11:02:35;;;;;;;6.10;5.60;;;34.50;43.90;;;;;;10514350;28;20216;-84
2021/06/18 11:07:40;;;;;;;5.50;5.00;;;33.80;44.00;;;;;;10529202;28;20255;-83
2021/06/18 11:12:48;;;;;;;5.03;4.73;;;33.30;43.30;;;;;;10511302;28;20861;-84
2021/06/18 11:17:53;;;;;;;5.27;4.87;;;32.90;45.40;;;;;;10529809;28;20242;-84
2021/06/18 11:23:09;;;;;;;6.37;5.87;;;32.60;47.20;;;;;;10513062;28;20502;-84
2021/06/18 11:28:36;;;;;;;5.63;5.13;;;32.40;47.80;;;;;;10529468;28;20252;-80
2021/06/18 11:33:46;;;;;;;3.67;3.47;;;32.10;48.30;;;;;;10529501;28;20310;-81
2021/06/18 11:38:52;;;;;;;4.13;3.90;;;31.90;40.60;;;;;;10526066;28;20204;-81
2021/06/18 11:43:56;;;;;;;4.50;4.20;;;31.70;41.30;;;;;;10531000;28;20230;-81
2021/06/18 11:49:09;;;;;;;4.30;4.00;;;31.60;40.30;;;;;;10514347;28;20249;-83
2021/06/18 11:54:21;;;;;;;6.93;5.37;;;31.50;41.80;;;;;;10520584;28;20269;-80
2021/06/18 11:59:24;;;;;;;4.90;4.60;;;31.40;43.10;;;;;;10546852;28;20199;-83
2021/06/18 12:04:27;;;;;;;5.33;4.53;;;31.30;43.30;;;;;;10527339;28;20224;-83
2021/06/18 12:09:38;;;;;;;8.10;5.80;;;31.30;45.30;;;;;;10504711;28;20226;-83
2021/06/18 12:14:43;;;;;;;5.43;5.03;;;31.20;45.10;;;;;;10528446;28;20505;-83
2021/06/18 12:19:46;;;;;;;5.20;4.87;;;31.30;43.90;;;;;;10528414;28;20234;-83
2021/06/18 12:24:53;;;;;;;5.07;4.67;;;31.30;43.00;;;;;;10512085;28;20223;-83
2021/06/18 12:29:57;;;;;;;5.47;5.07;;;31.30;43.40;;;;;;10528468;28;20709;-82
2021/06/18 12:35:01;;;;;;;9.20;5.13;;;31.20;45.40;;;;;;10528871;28;20231;-81
2021/06/18 12:40:07;;;;;;;6.23;4.60;;;31.20;45.30;;;;;;10510006;28;20224;-83
2021/06/18 12:45:12;;;;;;;5.10;4.20;;;31.20;43.50;;;;;;10530160;28;20711;-82
2021/06/18 12:50:29;;;;;;;6.50;4.90;;;31.20;42.70;;;;;;10534403;28;20616;-81
2021/06/18 12:55:35;;;;;;;5.00;4.60;;;31.20;45.00;;;;;;10503570;28;20257;-81
2021/06/18 13:00:42;;;;;;;5.60;5.20;;;31.20;44.20;;;;;;10522129;28;20452;-83
2021/06/18 13:05:55;;;;;;;5.97;5.37;;;31.20;43.90;;;;;;10520001;28;20227;-83
2021/06/18 13:10:58;;;;;;;8.40;5.07;;;31.10;44.40;;;;;;10526558;28;20196;-82
2021/06/18 13:16:13;;;;;;;5.77;5.30;;;31.00;45.30;;;;;;10521029;28;20693;-83
2021/06/18 13:21:15;;;;;;;4.80;4.50;;;31.00;45.80;;;;;;10536329;28;20209;-82
2021/06/18 13:26:19;;;;;;;5.03;4.63;;;31.00;44.80;;;;;;10488485;28;20219;-82
2021/06/18 13:31:23;;;;;;;7.93;5.80;;;31.00;42.70;;;;;;10483610;28;20199;-83
2021/06/18 13:36:28;;;;;;;9.10;6.10;;;31.00;44.40;;;;;;10506536;28;20360;-84
2021/06/18 13:41:37;;;;;;;4.77;4.00;;;30.80;45.80;;;;;;10482511;28;20759;-84
2021/06/18 13:46:40;;;;;;;4.43;4.03;;;30.70;44.30;;;;;;10496273;28;20228;-84
2021/06/18 13:51:43;;;;;;;4.53;4.20;;;30.70;42.70;;;;;;10507955;28;20726;-83
2021/06/18 13:56:46;;;;;;;5.03;4.50;;;30.70;42.10;;;;;;10507589;28;20298;-84
2021/06/18 14:01:48;;;;;;;4.97;4.27;;;30.70;40.30;;;;;;10532592;28;20251;-82
2021/06/18 14:06:54;;;;;;;4.43;4.13;;;30.80;43.40;;;;;;10486511;28;20227;-82
2021/06/18 14:11:57;;;;;;;5.37;4.47;;;30.70;43.00;;;;;;10513784;28;20565;-84
2021/06/18 14:17:00;;;;;;;7.30;4.70;;;30.60;45.10;;;;;;10527072;28;20216;-82
2021/06/18 14:22:03;;;;;;;5.13;4.03;;;30.60;42.50;;;;;;10505178;28;20743;-83
2021/06/18 14:27:07;;;;;;;4.33;4.03;;;30.60;41.30;;;;;;10514403;28;20306;-83
2021/06/18 14:32:11;;;;;;;8.20;4.37;;;30.50;42.40;;;;;;10529914;28;20224;-84
2021/06/18 14:37:14;;;;;;;5.07;4.17;;;30.60;42.30;;;;;;10525545;28;20230;-82
2021/06/18 14:42:17;;;;;;;6.00;4.13;;;30.60;42.20;;;;;;10528625;28;20220;-83
2021/06/18 14:47:19;;;;;;;6.80;4.17;;;30.60;45.50;;;;;;10517576;28;20272;-83
2021/06/18 14:52:21;;;;;;;4.53;4.10;;;30.50;42.60;;;;;;10505105;28;20203;-83
2021/06/18 14:57:25;;;;;;;4.23;3.63;;;30.60;41.90;;;;;;10529171;28;20258;-83
2021/06/18 15:02:28;;;;;;;4.57;4.00;;;30.50;44.40;;;;;;10524060;28;20251;-84
2021/06/18 15:07:30;;;;;;;4.73;4.27;;;30.50;42.50;;;;;;10491304;28;20264;-83
2021/06/18 15:12:34;;;;;;;14.67;4.67;;;30.50;41.90;;;;;;10517126;28;20275;-83
2021/06/18 15:17:36;;;;;;;4.63;4.20;;;30.40;41.70;;;;;;10524769;28;20717;-83
2021/06/18 15:22:39;;;;;;;4.53;4.13;;;30.40;45.40;;;;;;10513770;28;20260;-83
2021/06/18 15:27:42;;;;;;;5.03;4.27;;;30.30;43.80;;;;;;10541702;28;20766;-83
2021/06/18 15:32:45;;;;;;;4.37;3.70;;;30.30;42.90;;;;;;10514070;28;20232;-83
2021/06/18 15:37:47;;;;;;;5.33;4.80;;;30.30;45.60;;;;;;10548079;28;20302;-84
2021/06/18 15:42:50;;;;;;;5.27;4.70;;;30.30;46.90;;;;;;10525727;28;20223;-84
2021/06/18 15:47:53;;;;;;;4.30;3.93;;;30.20;45.50;;;;;;10532840;28;20258;-84
2021/06/18 15:52:56;;;;;;;6.57;5.50;;;30.30;43.90;;;;;;10529122;28;20200;-83
2021/06/18 15:57:59;;;;;;;4.73;4.20;;;30.40;47.40;;;;;;10530967;28;20270;-83
2021/06/18 16:03:01;;;;;;;7.30;4.50;;;30.30;46.60;;;;;;10516191;28;20244;-82
2021/06/18 16:08:04;;;;;;;7.80;5.70;;;30.20;48.40;;;;;;10522644;28;20703;-83
2021/06/18 16:13:07;;;;;;;5.90;4.90;;;30.10;48.20;;;;;;10484663;28;20235;-81
2021/06/18 16:18:10;;;;;;;6.20;5.00;;;30.10;46.80;;;;;;10502006;28;20225;-82
2021/06/18 16:23:12;;;;;;;8.23;5.60;;;30.10;47.20;;;;;;10484258;28;20692;-80
2021/06/18 16:28:16;;;;;;;11.03;5.03;;;30.10;51.70;;;;;;10485012;28;20278;-80
2021/06/18 16:33:19;;;;;;;6.87;4.80;;;30.10;44.40;;;;;;10502764;28;20224;-82
2021/06/18 16:38:21;;;;;;;6.90;6.00;;;30.20;46.60;;;;;;10483956;28;20228;-81
2021/06/18 16:43:24;;;;;;;6.13;4.60;;;30.20;48.40;;;;;;10535470;28;20216;-82
2021/06/18 16:48:26;;;;;;;7.20;5.60;;;30.30;49.20;;;;;;10544581;28;20203;-81
2021/06/18 16:53:29;;;;;;;9.03;4.93;;;30.30;48.90;;;;;;10544047;28;20214;-82
2021/06/18 16:58:33;;;;;;;4.90;4.40;;;30.30;50.10;;;;;;10545915;28;20612;-82
2021/06/18 17:03:35;;;;;;;10.57;4.93;;;30.20;52.90;;;;;;10557800;22;20220;-81
2021/06/18 17:08:41;;;;;;;7.23;4.90;;;30.20;54.10;;;;;;10512314;28;20220;-79
2021/06/18 17:14:03;;;;;;;5.53;4.80;;;30.00;53.90;;;;;;10496483;28;20246;-79
2021/06/18 17:19:05;;;;;;;8.87;5.60;;;29.80;54.40;;;;;;10499174;28;20204;-79
2021/06/18 17:24:12;;;;;;;5.47;4.97;;;29.60;54.30;;;;;;10498905;28;20235;-79
2021/06/18 17:29:16;;;;;;;4.47;4.07;;;29.40;54.00;;;;;;10501135;28;20660;-79
2021/06/18 17:34:18;;;;;;;5.77;5.10;;;29.20;53.70;;;;;;10500151;28;20222;-79
2021/06/18 17:39:20;;;;;;;6.10;4.90;;;29.00;53.90;;;;;;10498913;28;20227;-79
2021/06/18 17:44:24;;;;;;;7.50;5.57;;;28.80;53.80;;;;;;10504434;28;20289;-79
2021/06/18 17:49:26;;;;;;;8.50;5.87;;;28.60;54.10;;;;;;10498039;28;20193;-79
2021/06/18 17:54:29;;;;;;;6.13;4.33;;;28.50;54.50;;;;;;10502579;28;20291;-79
2021/06/18 17:59:36;;;;;;;7.70;5.97;;;28.40;53.60;;;;;;10489473;28;20230;-79
2021/06/18 18:04:39;;;;;;;6.60;5.40;;;28.30;54.20;;;;;;10502578;28;20252;-79
2021/06/18 18:09:41;;;;;;;6.17;5.63;;;28.20;53.60;;;;;;10494884;28;20197;-79
2021/06/18 18:14:44;;;;;;;7.60;6.90;;;28.10;53.50;;;;;;10506527;28;20588;-79
2021/06/18 18:19:46;;;;;;;6.60;5.63;;;28.10;54.80;;;;;;10480229;28;20223;-79
2021/06/18 18:24:48;;;;;;;12.20;5.40;;;28.00;54.10;;;;;;10509541;28;20270;-79
2021/06/18 18:29:52;;;;;;;6.10;5.50;;;27.90;54.40;;;;;;10508865;28;20197;-79
2021/06/18 18:34:54;;;;;;;5.97;5.37;;;27.80;54.90;;;;;;10509244;28;20216;-79
2021/06/18 18:39:56;;;;;;;5.80;5.30;;;27.80;55.10;;;;;;10481586;28;20283;-81
2021/06/18 18:45:00;;;;;;;5.10;4.70;;;27.80;55.20;;;;;;10473691;28;20223;-81
2021/06/18 18:50:02;;;;;;;6.73;4.83;;;27.70;55.20;;;;;;10465703;28;20201;-81
2021/06/18 18:55:08;;;;;;;6.13;5.53;;;27.70;55.50;;;;;;10496718;28;20239;-81
2021/06/18 19:00:14;;;;;;;5.70;5.20;;;27.70;55.70;;;;;;10476713;28;20300;-81
2021/06/18 19:05:17;;;;;;;6.50;5.80;;;27.70;55.60;;;;;;10466192;28;20247;-81
2021/06/18 19:10:19;;;;;;;7.63;6.33;;;27.60;56.00;;;;;;10471788;28;20236;-81
2021/06/18 19:15:23;;;;;;;8.03;5.50;;;27.60;56.60;;;;;;10484386;28;20212;-81
2021/06/18 19:20:25;;;;;;;6.00;5.40;;;27.50;56.40;;;;;;10500771;28;20254;-81
2021/06/18 19:25:28;;;;;;;7.30;5.20;;;27.40;56.90;;;;;;10494838;28;20224;-81
2021/06/18 19:30:31;;;;;;;6.07;5.27;;;27.30;56.70;;;;;;10505945;28;20260;-81
2021/06/18 19:35:36;;;;;;;6.00;5.40;;;27.30;56.30;;;;;;10513163;28;20238;-80
2021/06/18 19:40:38;;;;;;;5.70;5.20;;;27.10;56.60;;;;;;10475873;28;20341;-81
2021/06/18 19:45:42;;;;;;;5.67;5.27;;;27.10;57.10;;;;;;10466293;28;20220;-80
2021/06/18 19:50:44;;;;;;;5.90;5.37;;;27.00;56.30;;;;;;10477215;28;20672;-80
2021/06/18 19:55:46;;;;;;;7.10;5.93;;;27.00;56.40;;;;;;10496813;28;20248;-81
2021/06/18 20:00:50;;;;;;;7.00;5.80;;;26.80;56.10;;;;;;10500131;28;20283;-81
2021/06/18 20:05:53;;;;;;;8.80;4.97;;;26.80;56.50;;;;;;10495305;28;20232;-81
2021/06/18 20:10:55;;;;;;;6.87;5.30;;;26.70;57.20;;;;;;10489488;28;20287;-81
2021/06/18 20:15:58;;;;;;;5.47;4.97;;;26.60;57.00;;;;;;10496861;28;20220;-81
2021/06/18 20:21:03;;;;;;;7.47;5.20;;;26.60;57.20;;;;;;10498191;28;20258;-81
2021/06/18 20:26:06;;;;;;;9.43;7.03;;;26.50;57.80;;;;;;10490032;28;20216;-81
2021/06/18 20:31:10;;;;;;;10.63;5.70;;;26.50;57.90;;;;;;10475126;28;20251;-80
2021/06/18 20:36:14;;;;;;;7.30;5.93;;;26.50;58.70;;;;;;10465652;28;20247;-80
2021/06/18 20:41:17;;;;;;;7.17;6.33;;;26.60;59.60;;;;;;10460937;28;20212;-80
2021/06/18 20:46:21;;;;;;;6.23;5.73;;;26.60;60.60;;;;;;10464795;28;20653;-80
2021/06/18 20:51:23;;;;;;;6.40;5.80;;;26.60;62.30;;;;;;10445604;28;20630;-81
2021/06/18 20:56:25;;;;;;;9.50;6.47;;;26.60;64.30;;;;;;10450847;28;20756;-81
2021/06/18 21:01:29;;;;;;;9.47;7.10;;;26.60;64.50;;;;;;10460196;28;20204;-80
2021/06/18 21:06:31;;;;;;;8.03;6.50;;;26.60;65.40;;;;;;10467733;28;20220;-80
2021/06/18 21:11:33;;;;;;;8.13;6.73;;;26.60;65.90;;;;;;10466222;28;20193;-81
2021/06/18 21:16:37;;;;;;;7.53;6.87;;;26.70;66.30;;;;;;10472268;28;20247;-81
2021/06/18 21:21:39;;;;;;;7.33;6.70;;;26.80;67.50;;;;;;10502724;28;20265;-81
2021/06/18 21:26:41;;;;;;;8.57;7.90;;;26.80;68.00;;;;;;10493667;28;20278;-81
2021/06/18 21:31:45;;;;;;;8.20;7.20;;;26.90;68.70;;;;;;10505274;28;20303;-81
2021/06/18 21:36:47;;;;;;;7.87;7.00;;;26.90;68.20;;;;;;10479690;28;20517;-81
2021/06/18 21:41:49;;;;;;;7.43;6.67;;;27.00;68.20;;;;;;10487871;28;20193;-81
2021/06/18 21:46:53;;;;;;;6.77;6.20;;;27.10;68.50;;;;;;10485763;28;20599;-81
2021/06/18 21:51:55;;;;;;;10.10;7.27;;;27.10;68.40;;;;;;10494546;28;20303;-80
2021/06/18 21:56:57;;;;;;;9.37;7.20;;;27.10;68.70;;;;;;10496968;28;20244;-80
2021/06/18 22:02:01;;;;;;;7.47;6.97;;;27.00;69.20;;;;;;10515304;28;20211;-80
2021/06/18 22:07:03;;;;;;;7.47;6.77;;;27.00;69.30;;;;;;10480523;28;20282;-80
2021/06/18 22:12:06;;;;;;;9.27;8.00;;;27.00;69.30;;;;;;10496407;28;20215;-80
2021/06/18 22:17:10;;;;;;;7.30;6.70;;;26.90;68.80;;;;;;10492865;28;20300;-80
2021/06/18 22:22:12;;;;;;;8.50;5.87;;;26.80;69.20;;;;;;10490366;28;20726;-81
2021/06/18 22:27:14;;;;;;;7.37;6.60;;;26.80;69.20;;;;;;10495116;28;20307;-80
2021/06/18 22:32:17;;;;;;;8.63;6.53;;;26.80;70.10;;;;;;10493006;28;20217;-80
2021/06/18 22:37:20;;;;;;;7.13;6.43;;;26.70;71.80;;;;;;10492247;28;20216;-80
2021/06/18 22:42:23;;;;;;;7.47;6.73;;;26.60;72.80;;;;;;10493639;28;20207;-80
2021/06/18 22:47:27;;;;;;;7.70;6.97;;;26.60;71.40;;;;;;10474099;28;20252;-80
2021/06/18 22:52:29;;;;;;;7.83;6.30;;;26.60;71.50;;;;;;10465690;28;20293;-80
2021/06/18 22:57:31;;;;;;;6.67;5.50;;;26.60;68.70;;;;;;10466933;28;20221;-81
2021/06/18 23:02:37;;;;;;;7.63;4.80;;;26.60;66.40;;;;;;10492866;28;20232;-81
2021/06/18 23:07:40;;;;;;;7.77;4.67;;;26.50;65.40;;;;;;10489424;22;20244;-81
2021/06/18 23:12:42;;;;;;;12.03;5.30;;;26.40;65.10;;;;;;10458733;28;20287;-81
2021/06/18 23:17:46;;;;;;;8.63;4.60;;;26.40;63.10;;;;;;10455292;28;20300;-82
2021/06/18 23:22:50;;;;;;;6.73;4.60;;;26.40;64.40;;;;;;10442802;28;20213;-81
2021/06/18 23:27:54;;;;;;;8.97;6.00;;;26.30;63.00;;;;;;10436670;28;20343;-83
2021/06/18 23:32:58;;;;;;;7.97;5.13;;;26.30;62.50;;;;;;10446522;28;20256;-83
2021/06/18 23:38:02;;;;;;;7.70;4.10;;;26.30;62.80;;;;;;10454650;28;20774;-82
2021/06/18 23:43:05;;;;;;;5.83;4.50;;;26.30;61.10;;;;;;10439651;28;20743;-83
2021/06/18 23:48:09;;;;;;;9.70;4.87;;;26.30;60.40;;;;;;10435363;28;20217;-83
2021/06/18 23:53:11;;;;;;;14.13;4.00;;;26.20;59.20;;;;;;10431706;28;20255;-82
2021/06/18 23:58:14;;;;;;;9.87;4.30;;;26.20;58.90;;;;;;10432696;28;20225;-83
